Time,TemperatureF,DewpointF,PressureIn,WindDirection,WindDirectionDegrees,WindSpeedMPH,WindSpeedGustMPH,Humidity,HourlyPrecipIn,Conditions,Clouds,dailyrainin,SoftwareType,DateUTC
2013-07-25 00:24:00,79.2,60.7,29.81,SE,135,0.0,0.0,53,0.00,,,0.00,WUHU21623XXSP,2013-07-25 07:24:00,
2013-07-25 01:24:00,78.1,60.3,29.82,South,180,0.0,0.0,54,0.00,,,0.00,WUHU21623XXSP,2013-07-25 08:24:00,
2013-07-25 02:24:00,77.5,60.8,29.82,SSE,158,0.0,0.0,56,0.00,,,0.00,WUHU21623XXSP,2013-07-25 09:24:00,
2013-07-25 03:24:00,75.9,60.3,29.82,SW,225,0.0,0.0,58,0.00,,,0.00,WUHU21623XXSP,2013-07-25 10:24:00,
2013-07-25 04:24:00,74.1,59.0,29.82,WSW,248,0.0,0.0,59,0.00,,,0.00,WUHU21623XXSP,2013-07-25 11:24:00,
2013-07-25 05:24:00,73.0,59.0,29.83,WSW,248,0.0,0.0,61,0.00,,,0.00,WUHU21623XXSP,2013-07-25 12:24:00,
2013-07-25 06:24:00,73.2,59.1,29.83,South,180,0.0,0.0,61,0.00,,,0.00,WUHU21623XXSP,2013-07-25 13:24:00,
2013-07-25 07:24:00,80.1,60.5,29.86,South,180,2.2,2.2,51,0.00,,,0.00,WUHU21623XXSP,2013-07-25 14:24:00,
2013-07-25 08:24:00,90.3,58.8,29.86,WNW,293,0.0,0.0,35,0.00,,,0.00,WUHU21623XXSP,2013-07-25 15:24:00,
2013-07-25 09:24:00,97.5,59.8,29.88,SW,225,1.1,1.1,29,0.00,,,0.00,WUHU21623XXSP,2013-07-25 16:24:00,
2013-07-25 10:24:00,103.5,61.9,29.89,SSE,158,0.0,0.0,26,0.00,,,0.00,WUHU21623XXSP,2013-07-25 17:24:00,
2013-07-25 11:24:00,108.1,62.3,29.90,NW,315,4.9,4.9,23,0.00,,,0.00,WUHU21623XXSP,2013-07-25 18:24:00,
2013-07-25 12:24:00,111.0,63.5,29.88,West,270,0.0,0.0,22,0.00,,,0.00,WUHU21623XXSP,2013-07-25 19:24:00,
2013-07-25 13:24:00,112.6,63.5,29.87,West,270,2.0,2.0,21,0.00,,,0.00,WUHU21623XXSP,2013-07-25 20:24:00,
2013-07-25 14:24:00,113.9,63.2,29.86,West,270,2.5,2.5,20,0.00,,,0.00,WUHU21623XXSP,2013-07-25 21:24:00,
2013-07-25 15:24:00,113.0,62.4,29.84,NW,315,0.0,0.0,20,0.00,,,0.00,WUHU21623XXSP,2013-07-25 22:24:00,
2013-07-25 16:24:00,107.2,59.0,29.83,NW,315,0.0,0.0,21,0.00,,,0.00,WUHU21623XXSP,2013-07-25 23:24:00,
2013-07-25 17:24:00,104.9,60.8,29.82,NW,315,3.8,3.8,24,0.00,,,0.00,WUHU21623XXSP,2013-07-26 00:24:00,
2013-07-25 18:24:00,100.9,61.8,29.81,NE,45,5.1,5.1,28,0.00,,,0.00,WUHU21623XXSP,2013-07-26 01:24:00,
2013-07-25 19:24:00,97.7,62.8,29.81,NNE,23,0.0,0.0,32,0.00,,,0.00,WUHU21623XXSP,2013-07-26 02:24:00,
2013-07-25 20:24:00,93.9,61.2,29.81,NW,315,0.0,0.0,34,0.00,,,0.00,WUHU21623XXSP,2013-07-26 03:24:00,
2013-07-25 21:24:00,88.9,61.4,29.83,NNW,338,0.0,0.0,40,0.00,,,0.00,WUHU21623XXSP,2013-07-26 04:24:00,
2013-07-25 22:24:00,85.8,61.4,29.86,WNW,293,0.0,0.0,44,0.00,,,0.00,WUHU21623XXSP,2013-07-26 05:24:00,
2013-07-25 23:24:00,84.0,61.7,29.88,SW,225,0.0,0.0,47,0.00,,,0.00,WUHU21623XXSP,2013-07-26 06:24:00,